createdAt,value
2019-04-06T00:00:16.435Z,223.53
2019-04-06T00:04:23.546Z,227.13
2019-04-06T00:08:30.746Z,225.03
2019-04-06T00:12:38.052Z,240.53
2019-04-06T00:16:45.131Z,229.63
2019-04-06T00:20:52.420Z,233.97
2019-04-06T00:24:59.718Z,230.97
2019-04-06T00:29:06.899Z,227.20
2019-04-06T00:33:15.898Z,237.70
2019-04-06T00:37:23.294Z,228.43
2019-04-06T00:41:31.475Z,229.97
2019-04-06T00:45:38.650Z,226.83
2019-04-06T00:49:46.121Z,233.07
2019-04-06T00:53:53.447Z,226.30
2019-04-06T00:58:00.569Z,228.47
2019-04-06T01:02:07.991Z,232.70
2019-04-06T01:06:15.215Z,228.37
2019-04-06T01:10:22.306Z,236.37
2019-04-06T01:14:29.430Z,232.77
2019-04-06T01:18:36.659Z,228.50
2019-04-06T01:22:43.738Z,235.67
2019-04-06T01:26:50.805Z,233.43
2019-04-06T01:30:57.880Z,230.30
2019-04-06T01:35:05.228Z,226.83
2019-04-06T01:39:12.352Z,228.27
2019-04-06T01:43:19.415Z,227.93
2019-04-06T01:47:26.631Z,227.83
2019-04-06T01:51:33.784Z,228.50
2019-04-06T01:55:41.152Z,232.07
2019-04-06T01:59:48.299Z,235.67
2019-04-06T02:03:55.381Z,229.17
2019-04-06T02:08:02.638Z,227.43
2019-04-06T02:12:09.958Z,224.13
2019-04-06T02:16:17.008Z,226.33
2019-04-06T02:20:24.308Z,237.77
2019-04-06T02:24:31.628Z,225.90
2019-04-06T02:28:38.685Z,223.80
2019-04-06T02:32:59.624Z,223.63
2019-04-06T02:37:25.306Z,227.07
2019-04-06T02:41:37.079Z,229.53
2019-04-06T02:45:44.190Z,230.70
2019-04-06T02:49:51.412Z,224.50
2019-04-06T02:53:58.632Z,235.10
2019-04-06T02:58:06.300Z,232.63
2019-04-06T03:02:13.615Z,225.83
2019-04-06T03:06:21.076Z,242.37
2019-04-06T03:10:28.154Z,244.70
2019-04-06T03:14:35.278Z,227.90
2019-04-06T03:18:42.847Z,238.63
2019-04-06T03:22:50.131Z,262.97
2019-04-06T03:27:02.086Z,248.00
2019-04-06T03:31:06.192Z,239.97
2019-04-06T03:35:13.438Z,237.80
2019-04-06T03:39:20.573Z,264.40
2019-04-06T03:43:27.911Z,229.63
2019-04-06T03:47:35.211Z,248.37
2019-04-06T03:51:42.198Z,261.23
2019-04-06T03:55:49.373Z,282.60
2019-04-06T03:59:56.542Z,277.80
2019-04-06T04:04:03.840Z,274.40
2019-04-06T04:08:11.395Z,310.77
2019-04-06T04:12:18.504Z,264.90
2019-04-06T04:16:25.645Z,275.97
2019-04-06T04:20:32.857Z,272.00
2019-04-06T04:24:39.971Z,279.60
2019-04-06T04:28:47.394Z,281.60
2019-04-06T04:32:54.562Z,273.97
2019-04-06T04:37:01.640Z,267.23
2019-04-06T04:41:08.976Z,249.93
2019-04-06T04:45:16.115Z,234.87
2019-04-06T04:49:23.133Z,237.97
2019-04-06T04:53:30.474Z,221.23
2019-04-06T04:57:41.229Z,219.87
2019-04-06T05:01:46.524Z,231.87
2019-04-06T05:05:53.595Z,220.47
2019-04-06T05:10:00.698Z,239.00
2019-04-06T05:14:31.607Z,218.30
2019-04-06T05:18:40.350Z,218.13
2019-04-06T05:22:47.490Z,227.63
2019-04-06T05:26:54.720Z,222.27
2019-04-06T05:31:01.774Z,246.80
2019-04-06T05:35:09.160Z,262.17
2019-04-06T05:39:16.304Z,233.83
2019-04-06T05:43:23.470Z,229.57
2019-04-06T05:47:30.682Z,254.23
2019-04-06T05:51:37.798Z,241.20
2019-04-06T05:55:44.863Z,222.23
2019-04-06T05:59:51.977Z,218.20
2019-04-06T06:03:58.966Z,217.93
2019-04-06T06:08:06.068Z,216.27
2019-04-06T06:12:14.031Z,218.90
2019-04-06T06:16:21.162Z,215.73
2019-04-06T06:20:28.280Z,220.67
2019-04-06T06:24:35.502Z,219.13
2019-04-06T06:28:42.779Z,219.20
2019-04-06T06:32:49.956Z,223.70
2019-04-06T06:36:57.227Z,220.83
2019-04-06T06:41:04.850Z,212.97
2019-04-06T06:45:12.633Z,219.40
2019-04-06T06:49:19.802Z,221.30
2019-04-06T06:53:27.020Z,220.57
2019-04-06T06:57:34.272Z,224.43
2019-04-06T07:01:41.421Z,227.10
2019-04-06T07:05:48.709Z,221.43
2019-04-06T07:10:04.402Z,227.33
2019-04-06T07:14:05.031Z,225.37
2019-04-06T07:18:12.312Z,226.23
2019-04-06T07:22:19.347Z,225.00
2019-04-06T07:26:26.629Z,226.77
2019-04-06T07:30:34.009Z,232.87
2019-04-06T07:34:40.998Z,231.83
2019-04-06T07:38:48.232Z,232.17
2019-04-06T07:42:55.338Z,224.10
2019-04-06T07:47:02.321Z,224.37
2019-04-06T07:51:09.304Z,230.17
2019-04-06T07:55:16.626Z,223.73
2019-04-06T07:59:23.790Z,223.57
2019-04-06T08:03:32.883Z,224.70
2019-04-06T08:07:39.975Z,227.23
2019-04-06T08:11:47.079Z,228.17
2019-04-06T08:15:54.384Z,224.80
2019-04-06T08:20:03.758Z,218.03
2019-04-06T08:24:11.239Z,229.23
2019-04-06T08:28:18.684Z,231.83
2019-04-06T08:32:27.063Z,235.30
2019-04-06T08:36:34.231Z,223.17
2019-04-06T08:40:41.288Z,226.97
2019-04-06T08:44:48.607Z,227.97
2019-04-06T08:48:55.700Z,229.53
2019-04-06T08:53:03.228Z,222.63
2019-04-06T08:57:12.405Z,223.97
2019-04-06T09:01:19.555Z,220.30
2019-04-06T09:05:27.536Z,224.60
2019-04-06T09:09:34.713Z,228.73
2019-04-06T09:13:41.793Z,226.97
2019-04-06T09:17:48.922Z,227.00
2019-04-06T09:21:56.258Z,226.60
2019-04-06T09:26:04.001Z,222.33
2019-04-06T09:30:11.834Z,232.60
2019-04-06T09:34:20.992Z,227.27
2019-04-06T09:38:28.612Z,227.43
2019-04-06T09:42:35.922Z,226.80
2019-04-06T09:46:59.722Z,223.27
2019-04-06T09:51:17.479Z,228.00
2019-04-06T09:55:35.731Z,227.63
2019-04-06T09:59:53.853Z,225.23
2019-04-06T10:04:11.500Z,224.57
2019-04-06T10:08:23.667Z,222.82
2019-04-06T10:12:47.692Z,218.52
2019-04-06T10:16:56.872Z,221.90
2019-04-06T10:21:22.976Z,223.32
2019-04-06T10:25:34.863Z,219.20
2019-04-06T10:29:50.298Z,216.97
2019-04-06T10:34:02.327Z,214.35
2019-04-06T10:38:18.227Z,216.42
2019-04-06T10:42:29.300Z,218.20
2019-04-06T10:46:49.933Z,223.40
2019-04-06T10:50:59.058Z,218.85
2019-04-06T10:55:11.136Z,215.28
2019-04-06T10:59:25.945Z,216.42
2019-04-06T11:03:37.938Z,215.97
2019-04-06T11:07:46.947Z,209.72
2019-04-06T11:12:11.301Z,213.25
2019-04-06T11:16:30.545Z,216.12
2019-04-06T11:20:42.701Z,226.92
2019-04-06T11:24:51.875Z,218.78
2019-04-06T11:29:06.546Z,214.45
2019-04-06T11:33:32.267Z,211.07
2019-04-06T11:37:52.860Z,217.13
2019-04-06T11:42:13.110Z,217.80
2019-04-06T11:46:23.193Z,214.40
2019-04-06T11:50:41.045Z,218.48
2019-04-06T11:54:52.883Z,221.03
2019-04-06T11:59:10.507Z,214.50
2019-04-06T12:03:35.789Z,211.35
2019-04-06T12:07:59.693Z,212.17
2019-04-06T12:12:15.142Z,213.92
2019-04-06T12:16:30.016Z,212.82
2019-04-06T12:20:38.998Z,215.32
2019-04-06T12:25:04.687Z,217.53
2019-04-06T12:29:30.763Z,216.95
2019-04-06T12:33:56.054Z,222.10
2019-04-06T12:38:07.784Z,218.67
2019-04-06T12:42:22.806Z,218.43
2019-04-06T12:46:48.565Z,215.20
2019-04-06T12:50:57.710Z,213.45
2019-04-06T12:55:23.299Z,217.87
2019-04-06T12:59:35.234Z,214.53
2019-04-06T13:03:46.263Z,209.80
2019-04-06T13:08:11.785Z,210.15
2019-04-06T13:12:24.013Z,207.57
2019-04-06T13:16:36.527Z,207.60
2019-04-06T13:20:45.498Z,211.18
2019-04-06T13:24:54.936Z,209.85
2019-04-06T13:29:15.722Z,207.50
2019-04-06T13:33:33.688Z,209.45
2019-04-06T13:37:54.738Z,202.55
2019-04-06T13:42:18.380Z,201.45
2019-04-06T13:46:45.345Z,203.95
2019-04-06T13:50:54.303Z,200.82
2019-04-06T13:55:08.935Z,196.18
2019-04-06T13:59:18.130Z,199.25
2019-04-06T14:03:46.618Z,199.72
2019-04-06T14:08:13.501Z,198.85
2019-04-06T14:12:25.094Z,193.37
2019-04-06T14:16:34.452Z,195.75
2019-04-06T14:20:46.500Z,203.10
2019-04-06T14:25:12.096Z,203.88
2019-04-06T14:29:37.113Z,197.87
2019-04-06T14:33:58.305Z,201.30
2019-04-06T14:38:13.303Z,205.30
2019-04-06T14:42:28.558Z,203.10
2019-04-06T14:46:41.902Z,207.18
2019-04-06T14:50:54.035Z,198.75
2019-04-06T14:55:05.691Z,194.95
2019-04-06T14:59:23.999Z,195.18
2019-04-06T15:03:36.689Z,198.43
2019-04-06T15:07:45.843Z,197.00
2019-04-06T15:11:57.333Z,196.78
2019-04-06T15:16:15.557Z,197.75
2019-04-06T15:20:27.689Z,198.75
2019-04-06T15:24:39.358Z,195.87
2019-04-06T15:28:53.000Z,201.90
2019-04-06T15:33:02.081Z,202.70
2019-04-06T15:37:11.255Z,201.77
2019-04-06T15:41:20.525Z,210.68
2019-04-06T15:45:29.579Z,198.95
2019-04-06T15:49:38.636Z,199.40
2019-04-06T15:53:53.468Z,203.92
2019-04-06T15:58:05.411Z,201.42
2019-04-06T16:02:17.497Z,204.50
2019-04-06T16:06:29.315Z,199.75
2019-04-06T16:10:41.086Z,203.45
2019-04-06T16:14:50.165Z,203.00
2019-04-06T16:18:59.198Z,197.72
2019-04-06T16:23:25.895Z,200.38
2019-04-06T16:27:40.734Z,203.45
2019-04-06T16:32:12.443Z,200.50
2019-04-06T16:36:35.193Z,203.83
2019-04-06T16:40:44.171Z,198.75
2019-04-06T16:44:53.176Z,203.42
2019-04-06T16:49:18.582Z,197.53
2019-04-06T16:53:27.903Z,203.32
2019-04-06T16:57:40.041Z,200.05
2019-04-06T17:01:55.207Z,199.42
2019-04-06T17:06:16.031Z,199.25
2019-04-06T17:10:39.826Z,203.18
2019-04-06T17:14:51.941Z,202.57
2019-04-06T17:19:03.949Z,203.90
2019-04-06T17:23:18.807Z,212.65
2019-04-06T17:27:28.025Z,198.32
2019-04-06T17:31:40.312Z,207.12
2019-04-06T17:36:01.633Z,198.15
2019-04-06T17:40:19.895Z,199.27
2019-04-06T17:44:40.761Z,200.23
2019-04-06T17:49:06.647Z,201.77
2019-04-06T17:53:18.412Z,203.90
2019-04-06T17:57:33.661Z,197.03
2019-04-06T18:01:48.797Z,203.17
2019-04-06T18:06:09.933Z,199.07
2019-04-06T18:10:27.875Z,201.37
2019-04-06T18:14:35.203Z,195.57
2019-04-06T18:18:42.270Z,195.67
2019-04-06T18:22:49.341Z,200.50
2019-04-06T18:26:56.530Z,197.43
2019-04-06T18:31:05.824Z,199.73
2019-04-06T18:35:13.061Z,202.83
2019-04-06T18:39:21.536Z,203.03
2019-04-06T18:43:28.593Z,200.47
2019-04-06T18:47:35.719Z,193.53
2019-04-06T18:51:42.770Z,197.57
2019-04-06T18:55:49.766Z,200.77
2019-04-06T18:59:57.145Z,197.87
2019-04-06T19:04:04.343Z,202.63
2019-04-06T19:08:12.020Z,199.53
2019-04-06T19:12:19.293Z,200.80
2019-04-06T19:16:26.605Z,196.43
2019-04-06T19:20:33.793Z,196.27
2019-04-06T19:24:40.912Z,203.40
2019-04-06T19:28:48.173Z,195.47
2019-04-06T19:32:55.299Z,202.77
2019-04-06T19:37:02.808Z,194.80
2019-04-06T19:41:10.248Z,196.10
2019-04-06T19:45:17.405Z,198.07
2019-04-06T19:49:25.227Z,195.57
2019-04-06T19:53:32.351Z,191.20
2019-04-06T19:57:39.522Z,196.17
2019-04-06T20:01:47.080Z,199.43
2019-04-06T20:05:54.209Z,197.27
2019-04-06T20:10:03.537Z,194.40
2019-04-06T20:14:11.010Z,192.73
2019-04-06T20:18:18.132Z,201.60
2019-04-06T20:22:25.176Z,202.83
2019-04-06T20:26:32.449Z,200.07
2019-04-06T20:30:39.764Z,205.13
2019-04-06T20:34:47.092Z,198.57
2019-04-06T20:38:54.863Z,197.97
2019-04-06T20:43:03.028Z,202.87
2019-04-06T20:47:11.481Z,201.63
2019-04-06T20:51:18.955Z,202.93
2019-04-06T20:55:26.449Z,202.67
2019-04-06T20:59:33.537Z,200.70
2019-04-06T21:03:40.565Z,198.07
2019-04-06T21:07:47.665Z,196.93
2019-04-06T21:11:54.775Z,194.23
2019-04-06T21:16:02.213Z,196.60
2019-04-06T21:20:09.571Z,197.53
2019-04-06T21:24:16.902Z,197.77
2019-04-06T21:28:24.912Z,200.60
2019-04-06T21:32:32.624Z,199.90
2019-04-06T21:36:39.719Z,201.20
2019-04-06T21:40:46.882Z,199.93
2019-04-06T21:44:54.510Z,199.40
2019-04-06T21:49:04.530Z,198.70
2019-04-06T21:53:12.145Z,203.13
2019-04-06T21:57:20.185Z,201.67
2019-04-06T22:01:28.106Z,197.27
2019-04-06T22:05:36.241Z,198.30
2019-04-06T22:09:43.949Z,199.57
2019-04-06T22:13:51.280Z,198.87
2019-04-06T22:17:58.544Z,201.97
2019-04-06T22:22:06.393Z,203.27
2019-04-06T22:26:14.465Z,202.37
2019-04-06T22:30:21.604Z,202.93
2019-04-06T22:34:36.682Z,200.63
2019-04-06T22:38:37.901Z,198.23
2019-04-06T22:42:45.210Z,200.70
2019-04-06T22:46:52.368Z,206.70
2019-04-06T22:51:00.112Z,207.00
2019-04-06T22:55:08.496Z,201.70
2019-04-06T22:59:15.607Z,202.67
2019-04-06T23:03:41.285Z,204.80
2019-04-06T23:07:48.770Z,203.00
2019-04-06T23:11:56.877Z,205.47
2019-04-06T23:16:04.704Z,203.67
2019-04-06T23:20:13.265Z,202.60
2019-04-06T23:24:21.565Z,206.13
2019-04-06T23:28:29.542Z,208.80
2019-04-06T23:32:37.419Z,203.53
2019-04-06T23:36:44.775Z,204.40
2019-04-06T23:40:52.426Z,206.10
2019-04-06T23:44:59.759Z,204.13
2019-04-06T23:49:07.719Z,203.57
2019-04-06T23:53:15.135Z,209.47
2019-04-06T23:57:23.184Z,220.47
